createdAt,value
2017-07-12T00:00:36.322Z,65.9
2017-07-12T00:03:08.062Z,66.2
2017-07-12T00:05:39.753Z,65.9
2017-07-12T00:08:11.483Z,66.3
2017-07-12T00:10:43.179Z,66.1
2017-07-12T00:13:14.908Z,65.9
2017-07-12T00:15:46.643Z,66.2
2017-07-12T00:18:18.381Z,66.7
2017-07-12T00:20:50.066Z,66.6
2017-07-12T00:23:21.795Z,66.4
2017-07-12T00:25:53.501Z,66.2
2017-07-12T00:28:25.255Z,66.4
2017-07-12T00:30:56.988Z,66.1
2017-07-12T00:33:28.738Z,66.7
2017-07-12T00:36:00.444Z,66.7
2017-07-12T00:38:32.191Z,66.4
2017-07-12T00:41:03.910Z,66.4
2017-07-12T00:43:35.691Z,67.1
2017-07-12T00:46:07.403Z,66.9
2017-07-12T00:48:39.144Z,67.0
2017-07-12T00:51:10.864Z,66.8
2017-07-12T00:53:42.605Z,66.9
2017-07-12T00:56:14.314Z,67.3
2017-07-12T00:58:46.066Z,67.2
2017-07-12T01:01:17.796Z,67.0
2017-07-12T01:03:49.572Z,67.0
2017-07-12T01:06:21.286Z,66.9
2017-07-12T01:08:53.066Z,66.9
2017-07-12T01:11:24.755Z,67.2
2017-07-12T01:13:56.524Z,67.3
2017-07-12T01:16:28.220Z,66.9
2017-07-12T01:18:59.952Z,66.9
2017-07-12T01:21:31.667Z,66.9
2017-07-12T01:24:03.393Z,66.9
2017-07-12T01:26:35.120Z,66.5
2017-07-12T01:29:06.881Z,66.3
2017-07-12T01:31:38.615Z,66.5
2017-07-12T01:34:10.378Z,66.2
2017-07-12T01:36:42.117Z,66.4
2017-07-12T01:39:13.873Z,66.4
2017-07-12T01:41:45.572Z,66.2
2017-07-12T01:44:17.304Z,66.5
2017-07-12T01:46:49.005Z,66.4
2017-07-12T01:49:20.725Z,66.3
2017-07-12T01:51:52.414Z,66.7
2017-07-12T01:54:24.138Z,66.4
2017-07-12T01:56:55.866Z,67.0
2017-07-12T01:59:27.615Z,66.7
2017-07-12T02:01:59.363Z,66.4
2017-07-12T02:04:31.130Z,66.4
2017-07-12T02:07:02.832Z,66.9
2017-07-12T02:09:34.576Z,66.5
2017-07-12T02:12:06.271Z,66.4
2017-07-12T02:14:37.995Z,66.5
2017-07-12T02:17:09.704Z,66.2
2017-07-12T02:19:41.450Z,66.7
2017-07-12T02:22:13.137Z,66.2
2017-07-12T02:24:44.885Z,66.2
2017-07-12T02:27:16.590Z,66.4
2017-07-12T02:29:48.350Z,66.5
2017-07-12T02:32:20.103Z,66.4
2017-07-12T02:34:51.874Z,66.5
2017-07-12T02:37:23.593Z,66.3
2017-07-12T02:39:55.360Z,66.6
2017-07-12T02:42:27.100Z,66.3
2017-07-12T02:44:58.850Z,67.3
2017-07-12T02:47:30.572Z,67.4
2017-07-12T02:50:02.337Z,66.9
2017-07-12T02:52:34.050Z,67.2
2017-07-12T02:55:05.828Z,66.9
2017-07-12T02:57:37.553Z,66.9
2017-07-12T03:00:09.292Z,67.0
2017-07-12T03:02:41.070Z,66.9
2017-07-12T03:05:12.832Z,66.4
2017-07-12T03:07:44.574Z,66.9
2017-07-12T03:10:16.342Z,67.4
2017-07-12T03:12:48.060Z,67.0
2017-07-12T03:15:19.813Z,67.0
2017-07-12T03:17:51.572Z,66.9
2017-07-12T03:20:23.330Z,67.1
2017-07-12T03:22:55.045Z,66.9
2017-07-12T03:25:26.831Z,67.0
2017-07-12T03:27:58.561Z,67.1
2017-07-12T03:30:30.309Z,66.7
2017-07-12T03:33:02.042Z,66.9
2017-07-12T03:35:33.790Z,66.8
2017-07-12T03:38:05.497Z,67.0
2017-07-12T03:40:37.311Z,66.9
2017-07-12T03:43:09.053Z,67.0
2017-07-12T03:45:40.805Z,67.1
2017-07-12T03:48:12.523Z,67.3
2017-07-12T03:50:44.286Z,67.3
2017-07-12T03:53:16.003Z,67.2
2017-07-12T03:55:47.775Z,67.3
2017-07-12T03:58:19.492Z,67.3
2017-07-12T04:00:51.249Z,67.3
2017-07-12T04:03:22.959Z,67.3
2017-07-12T04:05:54.732Z,67.1
2017-07-12T04:08:26.495Z,67.4
2017-07-12T04:10:58.232Z,67.0
2017-07-12T04:13:29.939Z,68.1
2017-07-12T04:16:01.700Z,68.1
2017-07-12T04:18:33.408Z,68.1
2017-07-12T04:21:05.159Z,68.1
2017-07-12T04:23:36.929Z,66.9
2017-07-12T04:26:08.696Z,66.4
2017-07-12T04:28:40.404Z,65.6
2017-07-12T04:31:12.191Z,65.7
2017-07-12T04:33:43.903Z,65.6
2017-07-12T04:36:15.675Z,65.9
2017-07-12T04:38:47.405Z,65.7
2017-07-12T04:41:19.164Z,65.8
2017-07-12T04:43:50.863Z,64.9
2017-07-12T04:46:22.667Z,64.7
2017-07-12T04:48:54.389Z,64.3
2017-07-12T04:51:26.149Z,65.7
2017-07-12T04:53:57.873Z,66.5
2017-07-12T04:56:29.609Z,66.5
2017-07-12T04:59:01.332Z,66.5
2017-07-12T05:01:33.093Z,66.3
2017-07-12T05:04:04.814Z,66.3
2017-07-12T05:06:36.583Z,67.9
2017-07-12T05:09:08.323Z,67.1
2017-07-12T05:11:40.103Z,67.8
2017-07-12T05:14:11.847Z,67.5
2017-07-12T05:16:43.611Z,66.7
2017-07-12T05:19:15.357Z,67.0
2017-07-12T05:21:47.154Z,66.7
2017-07-12T05:24:18.883Z,66.8
2017-07-12T05:26:50.618Z,66.5
2017-07-12T05:29:22.328Z,67.4
2017-07-12T05:31:54.052Z,67.3
2017-07-12T05:34:25.753Z,66.6
2017-07-12T05:36:57.581Z,66.4
2017-07-12T05:39:29.280Z,66.4
2017-07-12T05:42:01.036Z,66.3
2017-07-12T05:44:32.761Z,66.2
2017-07-12T05:47:04.508Z,67.1
2017-07-12T05:49:36.226Z,67.4
2017-07-12T05:52:07.993Z,67.4
2017-07-12T05:54:39.789Z,67.5
2017-07-12T05:57:11.509Z,67.1
2017-07-12T05:59:43.259Z,67.0
2017-07-12T06:02:15.026Z,67.3
2017-07-12T06:04:46.761Z,67.2
2017-07-12T06:07:18.553Z,67.4
2017-07-12T06:09:50.343Z,68.1
2017-07-12T06:12:22.074Z,67.0
2017-07-12T06:14:53.770Z,67.3
2017-07-12T06:17:25.515Z,67.2
2017-07-12T06:19:57.221Z,66.7
2017-07-12T06:22:28.947Z,67.0
2017-07-12T06:25:00.637Z,67.2
2017-07-12T06:27:32.458Z,67.3
2017-07-12T06:30:04.235Z,66.9
2017-07-12T06:32:36.036Z,67.0
2017-07-12T06:35:07.776Z,67.3
2017-07-12T06:37:39.542Z,67.0
2017-07-12T06:40:11.278Z,67.3
2017-07-12T06:42:43.069Z,67.1
2017-07-12T06:45:14.869Z,66.6
2017-07-12T06:47:46.716Z,67.1
2017-07-12T06:50:18.438Z,66.5
2017-07-12T06:52:50.230Z,66.1
2017-07-12T06:55:21.962Z,66.5
2017-07-12T06:57:53.731Z,66.3
2017-07-12T07:00:25.471Z,66.1
2017-07-12T07:02:57.247Z,65.7
2017-07-12T07:05:28.982Z,65.9
2017-07-12T07:08:00.743Z,65.8
2017-07-12T07:10:32.494Z,65.7
2017-07-12T07:13:04.260Z,66.0
2017-07-12T07:15:35.981Z,65.6
2017-07-12T07:18:07.749Z,65.6
2017-07-12T07:20:39.482Z,65.8
2017-07-12T07:23:11.249Z,65.8
2017-07-12T07:25:42.991Z,65.8
2017-07-12T07:28:14.734Z,65.8
2017-07-12T07:30:46.465Z,65.9
2017-07-12T07:33:18.264Z,65.6
2017-07-12T07:35:49.972Z,65.8
2017-07-12T07:38:21.741Z,65.5
2017-07-12T07:40:53.522Z,65.8
2017-07-12T07:43:25.355Z,65.3
2017-07-12T07:45:57.104Z,65.8
2017-07-12T07:48:28.888Z,65.7
2017-07-12T07:51:00.625Z,65.4
2017-07-12T07:53:32.562Z,65.5
2017-07-12T07:56:04.313Z,65.6
2017-07-12T07:58:36.044Z,65.7
2017-07-12T08:01:07.733Z,66.3
2017-07-12T08:03:39.467Z,66.5
2017-07-12T08:06:11.180Z,67.1
2017-07-12T08:08:42.934Z,67.6
2017-07-12T08:11:14.635Z,67.5
2017-07-12T08:13:46.400Z,67.0
2017-07-12T08:16:18.135Z,66.9
2017-07-12T08:18:49.912Z,67.2
2017-07-12T08:21:21.622Z,66.1
2017-07-12T08:23:53.383Z,66.4
2017-07-12T08:26:25.131Z,66.3
2017-07-12T08:28:56.921Z,66.7
2017-07-12T08:31:28.645Z,66.2
2017-07-12T08:34:00.393Z,65.8
2017-07-12T08:36:32.122Z,66.5
2017-07-12T08:39:03.905Z,66.3
2017-07-12T08:41:35.639Z,67.0
2017-07-12T08:44:07.377Z,66.4
2017-07-12T08:46:39.099Z,66.4
2017-07-12T08:49:10.881Z,66.7
2017-07-12T08:51:42.611Z,66.1
2017-07-12T08:54:14.379Z,66.5
2017-07-12T08:56:46.142Z,67.1
2017-07-12T08:59:17.947Z,66.4
2017-07-12T09:01:49.687Z,66.1
2017-07-12T09:04:21.445Z,65.6
2017-07-12T09:06:53.162Z,65.7
2017-07-12T09:09:24.940Z,66.0
2017-07-12T09:11:56.666Z,65.7
2017-07-12T09:14:28.401Z,65.5
2017-07-12T09:17:00.105Z,65.1
2017-07-12T09:19:31.840Z,65.2
2017-07-12T09:22:03.533Z,65.5
2017-07-12T15:35:27.629Z,64.8
2017-07-12T15:37:59.357Z,64.4
2017-07-12T15:40:31.163Z,64.8
2017-07-12T15:43:03.449Z,64.6
2017-07-12T15:45:35.912Z,64.3
2017-07-12T15:48:09.313Z,63.9
2017-07-12T15:50:41.078Z,63.5
2017-07-12T15:53:14.195Z,63.4
2017-07-12T15:55:45.985Z,64.8
2017-07-12T15:58:17.846Z,64.1
2017-07-12T16:00:49.632Z,63.7
2017-07-12T16:03:22.449Z,63.2
2017-07-12T16:05:55.208Z,63.9
2017-07-12T16:08:27.089Z,63.5
2017-07-12T16:10:59.401Z,63.7
2017-07-12T16:13:31.171Z,64.0
2017-07-12T16:16:02.973Z,74.0
2017-07-12T16:18:34.699Z,68.3
2017-07-12T16:21:06.493Z,67.5
2017-07-12T16:23:38.329Z,67.3
2017-07-12T16:26:10.123Z,66.0
2017-07-12T16:28:41.892Z,65.8
2017-07-12T16:31:13.743Z,65.6
2017-07-12T16:33:45.815Z,64.8
2017-07-12T16:36:17.624Z,64.3
2017-07-12T16:38:49.383Z,64.6
2017-07-12T16:41:21.168Z,63.9
2017-07-12T16:43:52.949Z,64.0
2017-07-12T16:46:24.696Z,63.6
2017-07-12T16:48:56.484Z,63.9
2017-07-12T16:51:28.263Z,63.7
2017-07-12T16:54:00.011Z,63.9
2017-07-12T16:56:31.818Z,64.3
2017-07-12T16:59:03.562Z,63.5
2017-07-12T17:01:35.437Z,63.4
2017-07-12T17:04:07.174Z,63.5
2017-07-12T17:06:38.987Z,63.6
2017-07-12T17:09:14.467Z,63.9
2017-07-12T17:11:46.581Z,63.6
2017-07-12T17:14:18.307Z,63.1
2017-07-12T17:16:55.168Z,63.5
2017-07-12T17:19:28.863Z,63.2
2017-07-12T17:22:05.532Z,62.2
2017-07-12T17:24:39.288Z,60.9
2017-07-12T17:27:11.105Z,60.1
2017-07-12T17:29:44.154Z,59.9
2017-07-12T17:32:17.422Z,59.9
2017-07-12T17:34:49.223Z,59.8
2017-07-12T17:37:21.739Z,58.7
2017-07-12T17:39:53.514Z,59.1
2017-07-12T17:42:25.300Z,58.5
2017-07-12T17:44:57.052Z,59.0
2017-07-12T17:47:28.872Z,58.5
2017-07-12T17:50:00.618Z,58.3
2017-07-12T17:52:32.413Z,58.6
2017-07-12T17:55:04.164Z,58.6
2017-07-12T17:57:35.927Z,58.8
2017-07-12T18:00:16.783Z,58.8
2017-07-12T18:02:48.885Z,58.7
2017-07-12T18:05:20.598Z,58.1
2017-07-12T18:07:53.859Z,58.4
2017-07-12T18:10:27.009Z,57.9
2017-07-12T18:13:00.121Z,58.4
2017-07-12T18:15:32.917Z,58.8
2017-07-12T18:18:05.874Z,57.6
2017-07-12T18:20:38.420Z,57.6
2017-07-12T18:23:10.351Z,56.3
2017-07-12T18:25:42.257Z,55.6
2017-07-12T18:28:14.027Z,56.0
2017-07-12T18:30:45.833Z,57.1
2017-07-12T18:33:17.611Z,57.0
2017-07-12T18:35:49.369Z,56.8
2017-07-12T18:38:21.192Z,53.9
2017-07-12T18:40:52.950Z,54.9
2017-07-12T18:43:24.751Z,56.8
2017-07-12T18:45:56.503Z,56.9
2017-07-12T18:48:28.299Z,56.6
2017-07-12T18:51:00.051Z,54.9
2017-07-12T18:53:31.926Z,51.1
2017-07-12T18:56:03.705Z,47.5
2017-07-12T18:58:35.543Z,47.0
2017-07-12T19:01:07.347Z,47.1
2017-07-12T19:03:39.136Z,47.1
2017-07-12T19:06:10.903Z,49.2
2017-07-12T19:08:42.753Z,50.9
2017-07-12T19:11:14.513Z,52.6
2017-07-12T19:13:46.361Z,53.3
2017-07-12T19:16:18.093Z,52.3
2017-07-12T19:18:49.965Z,52.6
2017-07-12T19:21:21.721Z,52.8
2017-07-12T19:23:53.484Z,53.1
2017-07-12T19:26:25.230Z,54.2
2017-07-12T19:28:56.980Z,54.3
2017-07-12T19:31:28.685Z,54.3
2017-07-12T19:34:00.452Z,55.2
2017-07-12T19:36:40.555Z,55.1
2017-07-12T19:39:14.440Z,55.0
2017-07-12T19:41:46.176Z,55.5
2017-07-12T19:44:17.947Z,55.4
2017-07-12T19:46:49.684Z,55.7
2017-07-12T19:49:21.543Z,55.6
2017-07-12T19:51:53.555Z,55.6
2017-07-12T19:54:25.675Z,55.6
2017-07-12T19:56:57.588Z,55.6
2017-07-12T19:59:29.374Z,55.6
2017-07-12T20:02:01.117Z,55.9
2017-07-12T20:04:32.876Z,55.7
2017-07-12T20:07:04.602Z,55.5
2017-07-12T20:09:36.363Z,55.6
2017-07-12T20:12:08.115Z,55.9
2017-07-12T20:14:39.927Z,55.5
2017-07-12T20:17:11.643Z,55.6
2017-07-12T20:19:43.503Z,55.8
2017-07-12T20:22:15.260Z,55.1
2017-07-12T20:24:47.091Z,55.5
2017-07-12T20:27:18.820Z,55.4
2017-07-12T20:29:50.609Z,56.6
2017-07-12T20:32:22.389Z,56.3
2017-07-12T20:34:54.142Z,56.7
2017-07-12T20:37:26.016Z,56.6
2017-07-12T20:39:57.771Z,56.8
2017-07-12T20:42:29.516Z,57.2
2017-07-12T20:45:01.317Z,56.9
2017-07-12T20:47:33.055Z,56.7
2017-07-12T20:50:04.822Z,57.5
2017-07-12T20:52:36.527Z,57.2
2017-07-12T20:55:09.589Z,57.5
2017-07-12T20:57:41.411Z,57.6
2017-07-12T21:00:13.475Z,57.5
2017-07-12T21:02:45.809Z,58.2
2017-07-12T21:05:17.909Z,58.2
2017-07-12T21:07:50.263Z,58.0
2017-07-12T21:10:22.042Z,58.0
2017-07-12T21:12:53.751Z,57.8
2017-07-12T21:15:25.634Z,58.0
2017-07-12T21:17:57.350Z,58.3
2017-07-12T21:20:29.090Z,58.6
2017-07-12T21:23:02.000Z,58.2
2017-07-12T21:25:33.784Z,58.2
2017-07-12T21:28:08.748Z,58.9
2017-07-12T21:30:40.464Z,58.9
2017-07-12T21:33:13.650Z,58.9
2017-07-12T21:35:46.833Z,59.0
2017-07-12T21:38:18.572Z,58.7
2017-07-12T21:40:50.475Z,58.5
2017-07-12T21:43:22.207Z,58.3
2017-07-12T21:45:55.249Z,58.4
2017-07-12T21:48:28.163Z,58.4
2017-07-12T21:50:59.979Z,58.3
2017-07-12T21:53:31.705Z,58.6
2017-07-12T21:56:03.438Z,58.5
2017-07-12T21:58:35.206Z,58.9
2017-07-12T22:01:06.960Z,59.2
2017-07-12T22:03:38.678Z,59.0
2017-07-12T22:06:10.438Z,59.0
2017-07-12T22:08:42.142Z,59.0
2017-07-12T22:11:13.888Z,58.8
2017-07-12T22:13:45.642Z,58.9
2017-07-12T22:16:17.373Z,58.9
2017-07-12T22:18:49.082Z,59.0
2017-07-12T22:21:20.843Z,58.9
2017-07-12T22:23:52.563Z,59.0
2017-07-12T22:26:24.308Z,58.8
2017-07-12T22:28:56.104Z,58.8
2017-07-12T22:31:27.848Z,59.4
2017-07-12T22:33:59.557Z,59.1
2017-07-12T22:36:31.342Z,58.7
2017-07-12T22:39:03.124Z,59.5
2017-07-12T22:41:34.890Z,58.7
2017-07-12T22:44:06.623Z,59.5
2017-07-12T22:46:38.347Z,58.7
2017-07-12T22:49:10.062Z,58.9
2017-07-12T22:51:41.819Z,58.6
2017-07-12T22:54:13.532Z,58.8
2017-07-12T22:56:45.301Z,59.5
2017-07-12T22:59:17.041Z,59.6
2017-07-12T23:01:48.781Z,59.4
2017-07-12T23:04:20.507Z,59.6
2017-07-12T23:06:52.293Z,59.7
2017-07-12T23:09:24.000Z,59.6
2017-07-12T23:11:55.772Z,59.5
2017-07-12T23:14:27.498Z,59.5
2017-07-12T23:16:59.249Z,59.6
2017-07-12T23:19:30.964Z,59.3
2017-07-12T23:22:02.701Z,59.3
2017-07-12T23:24:34.425Z,59.5
2017-07-12T23:27:06.173Z,59.3
2017-07-12T23:29:37.888Z,59.3
2017-07-12T23:32:09.653Z,59.4
2017-07-12T23:34:41.378Z,59.2
2017-07-12T23:37:13.128Z,58.7
2017-07-12T23:39:44.836Z,59.1
2017-07-12T23:42:16.583Z,58.8
2017-07-12T23:44:48.294Z,59.3
2017-07-12T23:47:20.063Z,59.3
2017-07-12T23:49:51.797Z,58.9
2017-07-12T23:52:23.523Z,58.8
2017-07-12T23:54:55.234Z,58.7
2017-07-12T23:57:26.974Z,58.7
2017-07-12T23:59:58.695Z,58.7
